Terminal Aerodrome Forecast
Issued by NWS Chicago, IL

Home | Current Version | Previous Version | Text Only | Print | Product List | Glossary On
Versions: 1 2 3 4 5 6 7 8 9 10 11 12 13 14 15 16 17 18 19 20 21 22 23 24 25 26 27 28
000
FTUS43 KLOT 072051 AAA
TAFRFD
TAF AMD
KRFD 072051Z 0721/0818 27013G20KT P6SM SCT020 BKN200
     FM072300 26013G19KT P6SM BKN050
     FM081400 28015G25KT P6SM -SHSN BKN025=

USA.gov is the U.S. government's official web portal to all federal, state and local government web resources and services.